sensor_id;sensor_type;location;lat;lon;timestamp;temperature;humidity
8736;DHT22;4404;49.308;12.178;2022-12-18T00:01:21;-2.40;99.90
8736;DHT22;4404;49.308;12.178;2022-12-18T00:07:24;-2.30;99.90
8736;DHT22;4404;49.308;12.178;2022-12-18T00:13:28;-2.30;99.90
8736;DHT22;4404;49.308;12.178;2022-12-18T00:19:30;-2.30;99.90
8736;DHT22;4404;49.308;12.178;2022-12-18T00:25:33;-2.30;99.90
8736;DHT22;4404;49.308;12.178;2022-12-18T00:31:37;-2.30;99.90
8736;DHT22;4404;49.308;12.178;2022-12-18T00:37:39;-2.30;99.90
8736;DHT22;4404;49.308;12.178;2022-12-18T00:43:41;-2.20;99.90
8736;DHT22;4404;49.308;12.178;2022-12-18T00:49:45;-2.20;99.90
8736;DHT22;4404;49.308;12.178;2022-12-18T00:55:47;-2.20;99.90
8736;DHT22;4404;49.308;12.178;2022-12-18T01:01:49;-2.20;99.90
8736;DHT22;4404;49.308;12.178;2022-12-18T01:07:53;-2.10;99.90
8736;DHT22;4404;49.308;12.178;2022-12-18T01:13:55;-2.10;99.90
8736;DHT22;4404;49.308;12.178;2022-12-18T01:19:57;-2.10;99.90
8736;DHT22;4404;49.308;12.178;2022-12-18T01:26:05;-2.10;99.90
8736;DHT22;4404;49.308;12.178;2022-12-18T01:32:09;-2.10;99.90
8736;DHT22;4404;49.308;12.178;2022-12-18T01:38:11;-2.00;99.90
8736;DHT22;4404;49.308;12.178;2022-12-18T01:50:57;-2.00;99.90
8736;DHT22;4404;49.308;12.178;2022-12-18T01:56:59;-2.00;99.90
8736;DHT22;4404;49.308;12.178;2022-12-18T02:03:03;-1.90;99.90
8736;DHT22;4404;49.308;12.178;2022-12-18T02:09:10;-1.90;99.90
8736;DHT22;4404;49.308;12.178;2022-12-18T02:15:17;-1.90;99.90
8736;DHT22;4404;49.308;12.178;2022-12-18T02:21:29;-1.90;99.90
8736;DHT22;4404;49.308;12.178;2022-12-18T02:27:37;-1.90;99.90
8736;DHT22;4404;49.308;12.178;2022-12-18T02:33:42;-1.90;99.90
8736;DHT22;4404;49.308;12.178;2022-12-18T02:39:48;-1.90;99.90
8736;DHT22;4404;49.308;12.178;2022-12-18T02:45:54;-1.90;99.90
8736;DHT22;4404;49.308;12.178;2022-12-18T02:52:07;-1.90;99.90
8736;DHT22;4404;49.308;12.178;2022-12-18T02:58:16;-2.00;99.90
8736;DHT22;4404;49.308;12.178;2022-12-18T03:04:26;-2.10;99.90
8736;DHT22;4404;49.308;12.178;2022-12-18T03:10:33;-2.10;99.90
8736;DHT22;4404;49.308;12.178;2022-12-18T03:16:39;-2.20;99.90
8736;DHT22;4404;49.308;12.178;2022-12-18T03:22:46;-2.10;99.90
8736;DHT22;4404;49.308;12.178;2022-12-18T03:28:54;-2.20;99.90
8736;DHT22;4404;49.308;12.178;2022-12-18T03:35:03;-2.20;99.90
8736;DHT22;4404;49.308;12.178;2022-12-18T03:41:16;-2.30;99.90
8736;DHT22;4404;49.308;12.178;2022-12-18T03:47:25;-2.50;99.90
8736;DHT22;4404;49.308;12.178;2022-12-18T03:53:35;-2.70;99.90
8736;DHT22;4404;49.308;12.178;2022-12-18T03:59:40;-2.50;99.90
8736;DHT22;4404;49.308;12.178;2022-12-18T04:05:43;-2.60;99.90
8736;DHT22;4404;49.308;12.178;2022-12-18T04:11:47;-2.60;99.90
8736;DHT22;4404;49.308;12.178;2022-12-18T04:17:50;-2.70;99.90
8736;DHT22;4404;49.308;12.178;2022-12-18T04:23:53;-2.70;99.90
8736;DHT22;4404;49.308;12.178;2022-12-18T04:29:55;-2.70;99.90
8736;DHT22;4404;49.308;12.178;2022-12-18T04:35:58;-2.60;99.90
8736;DHT22;4404;49.308;12.178;2022-12-18T04:42:00;-2.60;99.90
8736;DHT22;4404;49.308;12.178;2022-12-18T04:48:04;-2.60;99.90
8736;DHT22;4404;49.308;12.178;2022-12-18T04:54:07;-2.60;99.90
8736;DHT22;4404;49.308;12.178;2022-12-18T05:00:11;-2.60;99.90
8736;DHT22;4404;49.308;12.178;2022-12-18T05:06:14;-2.50;99.90
8736;DHT22;4404;49.308;12.178;2022-12-18T05:12:17;-2.50;99.90
8736;DHT22;4404;49.308;12.178;2022-12-18T05:18:19;-2.50;99.90
8736;DHT22;4404;49.308;12.178;2022-12-18T05:24:22;-2.50;99.90
8736;DHT22;4404;49.308;12.178;2022-12-18T05:30:25;-2.40;99.90
8736;DHT22;4404;49.308;12.178;2022-12-18T05:36:28;-2.40;99.90
8736;DHT22;4404;49.308;12.178;2022-12-18T05:42:30;-2.40;99.90
8736;DHT22;4404;49.308;12.178;2022-12-18T05:48:34;-2.40;99.90
8736;DHT22;4404;49.308;12.178;2022-12-18T05:54:36;-2.40;99.90
8736;DHT22;4404;49.308;12.178;2022-12-18T06:00:40;-2.40;99.90
8736;DHT22;4404;49.308;12.178;2022-12-18T06:06:44;-2.40;99.90
8736;DHT22;4404;49.308;12.178;2022-12-18T06:12:46;-2.40;99.90
8736;DHT22;4404;49.308;12.178;2022-12-18T06:18:48;-2.40;99.90
8736;DHT22;4404;49.308;12.178;2022-12-18T06:24:52;-2.50;99.90
8736;DHT22;4404;49.308;12.178;2022-12-18T06:30:54;-2.50;99.90
8736;DHT22;4404;49.308;12.178;2022-12-18T06:36:56;-2.50;99.90
8736;DHT22;4404;49.308;12.178;2022-12-18T06:43:00;-2.50;99.90
8736;DHT22;4404;49.308;12.178;2022-12-18T06:49:02;-2.50;99.90
8736;DHT22;4404;49.308;12.178;2022-12-18T06:55:05;-2.60;99.90
8736;DHT22;4404;49.308;12.178;2022-12-18T07:01:11;-2.60;99.90
8736;DHT22;4404;49.308;12.178;2022-12-18T07:07:13;-2.70;99.90
8736;DHT22;4404;49.308;12.178;2022-12-18T07:13:15;-2.80;99.90
8736;DHT22;4404;49.308;12.178;2022-12-18T07:19:19;-2.70;99.90
8736;DHT22;4404;49.308;12.178;2022-12-18T07:25:21;-2.80;99.90
8736;DHT22;4404;49.308;12.178;2022-12-18T07:31:24;-2.80;99.90
8736;DHT22;4404;49.308;12.178;2022-12-18T07:37:28;-2.80;99.90
8736;DHT22;4404;49.308;12.178;2022-12-18T07:43:30;-2.80;99.90
8736;DHT22;4404;49.308;12.178;2022-12-18T07:49:32;-2.80;99.90
8736;DHT22;4404;49.308;12.178;2022-12-18T07:55:36;-2.70;99.90
8736;DHT22;4404;49.308;12.178;2022-12-18T08:01:38;-2.70;99.90
8736;DHT22;4404;49.308;12.178;2022-12-18T08:07:40;-2.80;99.90
8736;DHT22;4404;49.308;12.178;2022-12-18T08:13:43;-2.80;99.90
8736;DHT22;4404;49.308;12.178;2022-12-18T08:19:46;-2.80;99.90
8736;DHT22;4404;49.308;12.178;2022-12-18T08:25:48;-2.90;99.90
8736;DHT22;4404;49.308;12.178;2022-12-18T08:31:51;-2.80;99.90
8736;DHT22;4404;49.308;12.178;2022-12-18T08:37:54;-2.90;99.90
8736;DHT22;4404;49.308;12.178;2022-12-18T08:43:56;-2.90;99.90
8736;DHT22;4404;49.308;12.178;2022-12-18T08:50:17;-2.90;99.90
8736;DHT22;4404;49.308;12.178;2022-12-18T08:56:19;-2.90;99.90
8736;DHT22;4404;49.308;12.178;2022-12-18T09:02:21;-2.80;99.90
8736;DHT22;4404;49.308;12.178;2022-12-18T09:08:25;-2.90;99.90
8736;DHT22;4404;49.308;12.178;2022-12-18T09:14:27;-2.90;99.90
8736;DHT22;4404;49.308;12.178;2022-12-18T09:20:29;-2.90;99.90
8736;DHT22;4404;49.308;12.178;2022-12-18T09:26:32;-3.00;99.90
8736;DHT22;4404;49.308;12.178;2022-12-18T09:32:35;-2.90;99.90
8736;DHT22;4404;49.308;12.178;2022-12-18T09:38:37;-2.90;99.90
8736;DHT22;4404;49.308;12.178;2022-12-18T09:44:43;-2.90;99.90
8736;DHT22;4404;49.308;12.178;2022-12-18T09:50:48;-2.80;99.90
8736;DHT22;4404;49.308;12.178;2022-12-18T09:56:52;-2.70;99.90
8736;DHT22;4404;49.308;12.178;2022-12-18T10:02:59;-2.60;99.90
8736;DHT22;4404;49.308;12.178;2022-12-18T10:09:08;-2.50;99.90
8736;DHT22;4404;49.308;12.178;2022-12-18T10:15:19;-2.40;99.90
8736;DHT22;4404;49.308;12.178;2022-12-18T10:21:32;-2.30;99.90
8736;DHT22;4404;49.308;12.178;2022-12-18T10:27:38;-2.20;99.90
8736;DHT22;4404;49.308;12.178;2022-12-18T10:33:40;-2.20;99.90
8736;DHT22;4404;49.308;12.178;2022-12-18T10:39:44;-2.20;99.90
8736;DHT22;4404;49.308;12.178;2022-12-18T10:46:03;-2.10;99.90
8736;DHT22;4404;49.308;12.178;2022-12-18T10:52:15;-2.00;99.90
8736;DHT22;4404;49.308;12.178;2022-12-18T10:58:24;-2.00;99.90
8736;DHT22;4404;49.308;12.178;2022-12-18T11:04:30;-1.80;99.90
8736;DHT22;4404;49.308;12.178;2022-12-18T11:10:34;-1.40;99.90
8736;DHT22;4404;49.308;12.178;2022-12-18T11:16:45;-1.10;99.90
8736;DHT22;4404;49.308;12.178;2022-12-18T11:22:55;-0.80;99.90
8736;DHT22;4404;49.308;12.178;2022-12-18T11:29:09;-0.60;99.90
8736;DHT22;4404;49.308;12.178;2022-12-18T11:35:18;-0.30;99.90
8736;DHT22;4404;49.308;12.178;2022-12-18T11:41:27;0.00;99.90
8736;DHT22;4404;49.308;12.178;2022-12-18T11:47:49;0.10;99.90
8736;DHT22;4404;49.308;12.178;2022-12-18T11:53:57;-0.10;99.90
8736;DHT22;4404;49.308;12.178;2022-12-18T12:00:07;-0.10;99.90
8736;DHT22;4404;49.308;12.178;2022-12-18T12:06:20;-0.20;99.90
8736;DHT22;4404;49.308;12.178;2022-12-18T12:12:34;-0.50;99.90
8736;DHT22;4404;49.308;12.178;2022-12-18T12:19:02;-0.60;99.90
8736;DHT22;4404;49.308;12.178;2022-12-18T12:25:23;-0.50;99.90
8736;DHT22;4404;49.308;12.178;2022-12-18T12:31:44;-0.40;99.90
8736;DHT22;4404;49.308;12.178;2022-12-18T12:38:03;-0.30;99.90
8736;DHT22;4404;49.308;12.178;2022-12-18T12:44:13;-0.30;99.90
8736;DHT22;4404;49.308;12.178;2022-12-18T12:50:19;-0.10;99.90
8736;DHT22;4404;49.308;12.178;2022-12-18T12:56:22;0.10;99.90
8736;DHT22;4404;49.308;12.178;2022-12-18T13:02:33;0.30;99.90
8736;DHT22;4404;49.308;12.178;2022-12-18T13:08:55;0.20;99.90
8736;DHT22;4404;49.308;12.178;2022-12-18T13:15:12;-0.10;99.90
8736;DHT22;4404;49.308;12.178;2022-12-18T13:21:23;-0.30;99.90
8736;DHT22;4404;49.308;12.178;2022-12-18T13:34:17;-0.50;99.90
8736;DHT22;4404;49.308;12.178;2022-12-18T13:40:54;-0.60;99.90
8736;DHT22;4404;49.308;12.178;2022-12-18T13:46:59;-0.60;99.90
8736;DHT22;4404;49.308;12.178;2022-12-18T13:53:03;-0.70;99.90
8736;DHT22;4404;49.308;12.178;2022-12-18T13:59:18;-0.80;99.90
8736;DHT22;4404;49.308;12.178;2022-12-18T14:05:24;-0.80;99.90
8736;DHT22;4404;49.308;12.178;2022-12-18T14:11:27;-0.90;99.90
8736;DHT22;4404;49.308;12.178;2022-12-18T14:17:31;-0.90;99.90
8736;DHT22;4404;49.308;12.178;2022-12-18T14:23:36;-0.90;99.90
8736;DHT22;4404;49.308;12.178;2022-12-18T14:29:43;-1.10;99.90
8736;DHT22;4404;49.308;12.178;2022-12-18T14:35:54;-1.20;99.90
8736;DHT22;4404;49.308;12.178;2022-12-18T14:41:59;-1.30;99.90
8736;DHT22;4404;49.308;12.178;2022-12-18T14:48:05;-1.40;99.90
8736;DHT22;4404;49.308;12.178;2022-12-18T14:54:16;-1.50;99.90
8736;DHT22;4404;49.308;12.178;2022-12-18T15:00:23;-1.60;99.90
8736;DHT22;4404;49.308;12.178;2022-12-18T15:06:34;-1.80;99.90
8736;DHT22;4404;49.308;12.178;2022-12-18T15:12:40;-1.90;99.90
8736;DHT22;4404;49.308;12.178;2022-12-18T15:18:44;-2.00;99.90
8736;DHT22;4404;49.308;12.178;2022-12-18T15:24:48;-2.10;99.90
8736;DHT22;4404;49.308;12.178;2022-12-18T15:31:03;-2.20;99.90
8736;DHT22;4404;49.308;12.178;2022-12-18T15:37:08;-2.30;99.90
8736;DHT22;4404;49.308;12.178;2022-12-18T15:43:10;-2.40;99.90
8736;DHT22;4404;49.308;12.178;2022-12-18T15:49:30;-2.40;99.90
8736;DHT22;4404;49.308;12.178;2022-12-18T15:55:33;-2.50;99.90
8736;DHT22;4404;49.308;12.178;2022-12-18T16:01:53;-2.50;99.90
8736;DHT22;4404;49.308;12.178;2022-12-18T16:07:55;-2.50;99.90
8736;DHT22;4404;49.308;12.178;2022-12-18T16:13:58;-2.60;99.90
8736;DHT22;4404;49.308;12.178;2022-12-18T16:20:01;-2.70;99.90
8736;DHT22;4404;49.308;12.178;2022-12-18T16:26:03;-2.80;99.90
8736;DHT22;4404;49.308;12.178;2022-12-18T16:32:12;-3.00;99.90
8736;DHT22;4404;49.308;12.178;2022-12-18T16:38:15;-3.10;99.90
8736;DHT22;4404;49.308;12.178;2022-12-18T16:44:18;-3.30;99.90
8736;DHT22;4404;49.308;12.178;2022-12-18T16:50:22;-3.40;99.90
8736;DHT22;4404;49.308;12.178;2022-12-18T16:56:24;-3.50;99.90
8736;DHT22;4404;49.308;12.178;2022-12-18T17:02:26;-3.50;99.90
8736;DHT22;4404;49.308;12.178;2022-12-18T17:08:30;-3.70;99.90
8736;DHT22;4404;49.308;12.178;2022-12-18T17:14:33;-3.70;99.90
8736;DHT22;4404;49.308;12.178;2022-12-18T17:20:35;-3.80;99.90
8736;DHT22;4404;49.308;12.178;2022-12-18T17:26:39;-3.80;99.90
8736;DHT22;4404;49.308;12.178;2022-12-18T17:32:41;-3.80;99.90
8736;DHT22;4404;49.308;12.178;2022-12-18T17:38:49;-3.90;99.90
8736;DHT22;4404;49.308;12.178;2022-12-18T17:44:53;-4.10;99.90
8736;DHT22;4404;49.308;12.178;2022-12-18T17:51:00;-4.10;99.90
8736;DHT22;4404;49.308;12.178;2022-12-18T17:57:02;-4.20;99.90
8736;DHT22;4404;49.308;12.178;2022-12-18T18:03:06;-4.30;99.90
8736;DHT22;4404;49.308;12.178;2022-12-18T18:09:09;-4.30;99.90
8736;DHT22;4404;49.308;12.178;2022-12-18T18:15:11;-4.40;99.90
8736;DHT22;4404;49.308;12.178;2022-12-18T18:21:14;-4.50;99.90
8736;DHT22;4404;49.308;12.178;2022-12-18T18:27:16;-4.50;99.90
8736;DHT22;4404;49.308;12.178;2022-12-18T18:33:19;-4.60;99.90
8736;DHT22;4404;49.308;12.178;2022-12-18T18:39:22;-4.60;99.90
8736;DHT22;4404;49.308;12.178;2022-12-18T18:45:25;-4.60;99.90
8736;DHT22;4404;49.308;12.178;2022-12-18T18:51:27;-4.70;99.90
8736;DHT22;4404;49.308;12.178;2022-12-18T18:57:30;-4.70;99.90
8736;DHT22;4404;49.308;12.178;2022-12-18T19:03:35;-4.20;99.90
8736;DHT22;4404;49.308;12.178;2022-12-18T19:09:37;-4.80;99.90
8736;DHT22;4404;49.308;12.178;2022-12-18T19:15:41;-4.80;99.90
8736;DHT22;4404;49.308;12.178;2022-12-18T19:21:43;-4.70;99.90
8736;DHT22;4404;49.308;12.178;2022-12-18T19:27:45;-4.80;99.90
8736;DHT22;4404;49.308;12.178;2022-12-18T19:33:48;-4.80;99.90
8736;DHT22;4404;49.308;12.178;2022-12-18T19:39:51;-4.80;99.90
8736;DHT22;4404;49.308;12.178;2022-12-18T19:45:54;-4.90;99.90
8736;DHT22;4404;49.308;12.178;2022-12-18T19:51:58;-4.90;99.90
8736;DHT22;4404;49.308;12.178;2022-12-18T19:58:00;-4.80;99.90
8736;DHT22;4404;49.308;12.178;2022-12-18T20:04:02;-5.00;99.90
8736;DHT22;4404;49.308;12.178;2022-12-18T20:10:09;-5.10;99.90
8736;DHT22;4404;49.308;12.178;2022-12-18T20:16:14;-5.10;99.90
8736;DHT22;4404;49.308;12.178;2022-12-18T20:22:17;-5.10;99.90
8736;DHT22;4404;49.308;12.178;2022-12-18T20:28:21;-5.20;99.90
8736;DHT22;4404;49.308;12.178;2022-12-18T20:34:23;-5.30;99.90
8736;DHT22;4404;49.308;12.178;2022-12-18T20:40:25;-5.30;99.90
8736;DHT22;4404;49.308;12.178;2022-12-18T20:46:29;-5.30;99.90
8736;DHT22;4404;49.308;12.178;2022-12-18T20:52:31;-5.30;99.90
8736;DHT22;4404;49.308;12.178;2022-12-18T20:58:33;-5.20;99.90
8736;DHT22;4404;49.308;12.178;2022-12-18T21:04:37;-5.10;99.90
8736;DHT22;4404;49.308;12.178;2022-12-18T21:10:39;-5.10;99.90
8736;DHT22;4404;49.308;12.178;2022-12-18T21:16:42;-5.10;99.90
8736;DHT22;4404;49.308;12.178;2022-12-18T21:22:46;-5.10;99.90
8736;DHT22;4404;49.308;12.178;2022-12-18T21:28:52;-5.00;99.90
8736;DHT22;4404;49.308;12.178;2022-12-18T21:34:55;-4.90;99.90
8736;DHT22;4404;49.308;12.178;2022-12-18T21:40:58;-4.80;99.90
8736;DHT22;4404;49.308;12.178;2022-12-18T21:47:00;-4.40;99.90
8736;DHT22;4404;49.308;12.178;2022-12-18T21:53:02;-4.60;99.90
8736;DHT22;4404;49.308;12.178;2022-12-18T21:59:06;-4.50;99.90
8736;DHT22;4404;49.308;12.178;2022-12-18T22:05:08;-4.40;99.90
8736;DHT22;4404;49.308;12.178;2022-12-18T22:11:11;-4.30;99.90
8736;DHT22;4404;49.308;12.178;2022-12-18T22:17:15;-4.20;99.90
8736;DHT22;4404;49.308;12.178;2022-12-18T22:23:17;-4.10;99.90
8736;DHT22;4404;49.308;12.178;2022-12-18T22:29:20;-3.70;99.90
8736;DHT22;4404;49.308;12.178;2022-12-18T22:35:42;-4.00;99.90
8736;DHT22;4404;49.308;12.178;2022-12-18T22:41:44;-4.00;99.90
8736;DHT22;4404;49.308;12.178;2022-12-18T22:47:46;-4.00;99.90
8736;DHT22;4404;49.308;12.178;2022-12-18T22:53:50;-4.00;99.90
8736;DHT22;4404;49.308;12.178;2022-12-18T22:59:52;-4.00;99.90
8736;DHT22;4404;49.308;12.178;2022-12-18T23:06:03;-4.00;99.90
8736;DHT22;4404;49.308;12.178;2022-12-18T23:12:13;-3.90;99.90
8736;DHT22;4404;49.308;12.178;2022-12-18T23:18:16;-3.90;99.90
8736;DHT22;4404;49.308;12.178;2022-12-18T23:24:18;-4.10;99.90
8736;DHT22;4404;49.308;12.178;2022-12-18T23:30:22;-4.00;99.90
8736;DHT22;4404;49.308;12.178;2022-12-18T23:36:24;-4.00;99.90
8736;DHT22;4404;49.308;12.178;2022-12-18T23:42:27;-4.00;99.90
8736;DHT22;4404;49.308;12.178;2022-12-18T23:48:30;-4.00;99.90
8736;DHT22;4404;49.308;12.178;2022-12-18T23:54:32;-3.90;99.90
